sensor_id;sensor_type;location;lat;lon;timestamp;temperature;humidity
57843;DHT22;43673;51.058;3.734;2023-03-19T00:02:14;12.30;99.90
57843;DHT22;43673;51.058;3.734;2023-03-19T00:04:40;12.20;99.90
57843;DHT22;43673;51.058;3.734;2023-03-19T00:07:06;12.20;99.90
57843;DHT22;43673;51.058;3.734;2023-03-19T00:09:31;12.10;99.90
57843;DHT22;43673;51.058;3.734;2023-03-19T00:11:57;12.10;99.90
57843;DHT22;43673;51.058;3.734;2023-03-19T00:14:23;12.00;99.90
57843;DHT22;43673;51.058;3.734;2023-03-19T00:16:49;12.00;99.90
57843;DHT22;43673;51.058;3.734;2023-03-19T00:19:15;12.00;99.90
57843;DHT22;43673;51.058;3.734;2023-03-19T00:21:41;11.90;99.90
57843;DHT22;43673;51.058;3.734;2023-03-19T00:24:07;11.90;99.90
57843;DHT22;43673;51.058;3.734;2023-03-19T00:26:33;11.80;99.90
57843;DHT22;43673;51.058;3.734;2023-03-19T00:29:00;11.80;99.90
57843;DHT22;43673;51.058;3.734;2023-03-19T00:31:26;11.70;99.90
57843;DHT22;43673;51.058;3.734;2023-03-19T00:33:53;11.70;99.90
57843;DHT22;43673;51.058;3.734;2023-03-19T00:36:19;11.60;99.90
57843;DHT22;43673;51.058;3.734;2023-03-19T00:38:45;11.60;99.90
57843;DHT22;43673;51.058;3.734;2023-03-19T00:41:12;11.60;99.90
57843;DHT22;43673;51.058;3.734;2023-03-19T00:43:38;11.50;99.90
57843;DHT22;43673;51.058;3.734;2023-03-19T00:46:04;11.40;99.90
57843;DHT22;43673;51.058;3.734;2023-03-19T00:48:30;11.50;99.90
57843;DHT22;43673;51.058;3.734;2023-03-19T00:51:05;11.40;99.90
57843;DHT22;43673;51.058;3.734;2023-03-19T00:53:31;11.40;99.90
57843;DHT22;43673;51.058;3.734;2023-03-19T00:55:57;11.40;99.90
57843;DHT22;43673;51.058;3.734;2023-03-19T00:58:23;11.30;99.90
57843;DHT22;43673;51.058;3.734;2023-03-19T01:00:52;11.30;99.90
57843;DHT22;43673;51.058;3.734;2023-03-19T01:03:17;11.30;99.90
57843;DHT22;43673;51.058;3.734;2023-03-19T01:05:43;11.20;99.90
57843;DHT22;43673;51.058;3.734;2023-03-19T01:08:08;11.20;99.90
57843;DHT22;43673;51.058;3.734;2023-03-19T01:10:35;11.10;99.90
57843;DHT22;43673;51.058;3.734;2023-03-19T01:13:00;11.10;99.90
57843;DHT22;43673;51.058;3.734;2023-03-19T01:15:26;11.10;99.90
57843;DHT22;43673;51.058;3.734;2023-03-19T01:17:52;11.00;99.90
57843;DHT22;43673;51.058;3.734;2023-03-19T01:20:18;11.00;99.90
57843;DHT22;43673;51.058;3.734;2023-03-19T01:22:45;11.00;99.90
57843;DHT22;43673;51.058;3.734;2023-03-19T01:25:12;10.90;99.90
57843;DHT22;43673;51.058;3.734;2023-03-19T01:27:39;10.90;99.90
57843;DHT22;43673;51.058;3.734;2023-03-19T01:30:05;10.90;99.90
57843;DHT22;43673;51.058;3.734;2023-03-19T01:32:32;10.80;99.90
57843;DHT22;43673;51.058;3.734;2023-03-19T01:34:58;10.80;99.90
57843;DHT22;43673;51.058;3.734;2023-03-19T01:37:23;10.80;99.90
57843;DHT22;43673;51.058;3.734;2023-03-19T01:39:49;10.80;99.90
57843;DHT22;43673;51.058;3.734;2023-03-19T01:42:15;10.80;99.90
57843;DHT22;43673;51.058;3.734;2023-03-19T01:44:41;10.80;99.90
57843;DHT22;43673;51.058;3.734;2023-03-19T01:47:40;10.70;99.90
57843;DHT22;43673;51.058;3.734;2023-03-19T01:50:23;10.70;99.90
57843;DHT22;43673;51.058;3.734;2023-03-19T01:52:50;10.70;99.90
57843;DHT22;43673;51.058;3.734;2023-03-19T01:55:16;10.70;99.90
57843;DHT22;43673;51.058;3.734;2023-03-19T01:57:41;10.70;99.90
57843;DHT22;43673;51.058;3.734;2023-03-19T02:00:08;10.60;99.90
57843;DHT22;43673;51.058;3.734;2023-03-19T02:02:35;10.70;99.90
57843;DHT22;43673;51.058;3.734;2023-03-19T02:05:09;10.60;99.90
57843;DHT22;43673;51.058;3.734;2023-03-19T02:07:37;10.60;99.90
57843;DHT22;43673;51.058;3.734;2023-03-19T02:10:07;10.60;99.90
57843;DHT22;43673;51.058;3.734;2023-03-19T02:12:34;10.60;99.90
57843;DHT22;43673;51.058;3.734;2023-03-19T02:14:59;10.50;99.90
57843;DHT22;43673;51.058;3.734;2023-03-19T02:17:27;10.50;99.90
57843;DHT22;43673;51.058;3.734;2023-03-19T02:20:43;10.50;99.90
57843;DHT22;43673;51.058;3.734;2023-03-19T02:22:57;10.40;99.90
57843;DHT22;43673;51.058;3.734;2023-03-19T02:26:05;10.40;99.90
57843;DHT22;43673;51.058;3.734;2023-03-19T02:28:33;10.40;99.90
57843;DHT22;43673;51.058;3.734;2023-03-19T02:31:00;10.30;99.90
57843;DHT22;43673;51.058;3.734;2023-03-19T02:33:25;10.30;99.90
57843;DHT22;43673;51.058;3.734;2023-03-19T02:35:52;10.30;99.90
57843;DHT22;43673;51.058;3.734;2023-03-19T02:38:19;10.30;99.90
57843;DHT22;43673;51.058;3.734;2023-03-19T02:41:02;10.20;99.90
57843;DHT22;43673;51.058;3.734;2023-03-19T02:43:33;10.20;99.90
57843;DHT22;43673;51.058;3.734;2023-03-19T02:46:00;10.10;99.90
57843;DHT22;43673;51.058;3.734;2023-03-19T02:48:27;10.10;99.90
57843;DHT22;43673;51.058;3.734;2023-03-19T02:50:53;10.10;99.90
57843;DHT22;43673;51.058;3.734;2023-03-19T02:53:19;10.10;99.90
57843;DHT22;43673;51.058;3.734;2023-03-19T02:55:45;10.10;99.90
57843;DHT22;43673;51.058;3.734;2023-03-19T02:58:11;10.00;99.90
57843;DHT22;43673;51.058;3.734;2023-03-19T03:00:37;10.00;99.90
57843;DHT22;43673;51.058;3.734;2023-03-19T03:03:04;10.00;99.90
57843;DHT22;43673;51.058;3.734;2023-03-19T03:05:32;10.00;99.90
57843;DHT22;43673;51.058;3.734;2023-03-19T03:07:58;9.90;99.90
57843;DHT22;43673;51.058;3.734;2023-03-19T03:10:24;9.90;99.90
57843;DHT22;43673;51.058;3.734;2023-03-19T03:12:49;10.00;99.90
57843;DHT22;43673;51.058;3.734;2023-03-19T03:15:16;9.90;99.90
57843;DHT22;43673;51.058;3.734;2023-03-19T03:17:43;9.90;99.90
57843;DHT22;43673;51.058;3.734;2023-03-19T03:20:11;9.90;99.90
57843;DHT22;43673;51.058;3.734;2023-03-19T03:22:39;9.80;99.90
57843;DHT22;43673;51.058;3.734;2023-03-19T03:25:05;9.80;99.90
57843;DHT22;43673;51.058;3.734;2023-03-19T03:27:31;9.80;99.90
57843;DHT22;43673;51.058;3.734;2023-03-19T03:29:57;9.80;99.90
57843;DHT22;43673;51.058;3.734;2023-03-19T03:32:23;9.80;99.90
57843;DHT22;43673;51.058;3.734;2023-03-19T03:34:49;9.70;99.90
57843;DHT22;43673;51.058;3.734;2023-03-19T03:37:15;9.70;99.90
57843;DHT22;43673;51.058;3.734;2023-03-19T03:39:41;9.70;99.90
57843;DHT22;43673;51.058;3.734;2023-03-19T03:42:07;9.70;99.90
57843;DHT22;43673;51.058;3.734;2023-03-19T03:44:33;9.60;99.90
57843;DHT22;43673;51.058;3.734;2023-03-19T03:46:59;9.70;99.90
57843;DHT22;43673;51.058;3.734;2023-03-19T03:49:24;9.60;99.90
57843;DHT22;43673;51.058;3.734;2023-03-19T03:51:50;9.60;99.90
57843;DHT22;43673;51.058;3.734;2023-03-19T03:54:17;9.60;99.90
57843;DHT22;43673;51.058;3.734;2023-03-19T03:56:43;9.60;99.90
57843;DHT22;43673;51.058;3.734;2023-03-19T03:59:08;9.50;99.90
57843;DHT22;43673;51.058;3.734;2023-03-19T04:01:34;9.50;99.90
57843;DHT22;43673;51.058;3.734;2023-03-19T04:04:00;9.50;99.90
57843;DHT22;43673;51.058;3.734;2023-03-19T04:06:26;9.50;99.90
57843;DHT22;43673;51.058;3.734;2023-03-19T04:08:52;9.50;99.90
57843;DHT22;43673;51.058;3.734;2023-03-19T04:11:19;9.50;99.90
57843;DHT22;43673;51.058;3.734;2023-03-19T04:13:45;9.50;99.90
57843;DHT22;43673;51.058;3.734;2023-03-19T04:16:11;9.50;99.90
57843;DHT22;43673;51.058;3.734;2023-03-19T04:18:38;9.50;99.90
57843;DHT22;43673;51.058;3.734;2023-03-19T04:21:05;9.50;99.90
57843;DHT22;43673;51.058;3.734;2023-03-19T04:23:31;9.50;99.90
57843;DHT22;43673;51.058;3.734;2023-03-19T04:26:01;9.50;99.90
57843;DHT22;43673;51.058;3.734;2023-03-19T04:28:28;9.50;99.90
57843;DHT22;43673;51.058;3.734;2023-03-19T04:31:02;9.50;99.90
57843;DHT22;43673;51.058;3.734;2023-03-19T04:33:28;9.50;99.90
57843;DHT22;43673;51.058;3.734;2023-03-19T04:35:55;9.50;99.90
57843;DHT22;43673;51.058;3.734;2023-03-19T04:38:21;9.50;99.90
57843;DHT22;43673;51.058;3.734;2023-03-19T04:40:47;9.40;99.90
57843;DHT22;43673;51.058;3.734;2023-03-19T04:43:13;9.50;99.90
57843;DHT22;43673;51.058;3.734;2023-03-19T04:45:40;9.50;99.90
57843;DHT22;43673;51.058;3.734;2023-03-19T04:48:06;9.50;99.90
57843;DHT22;43673;51.058;3.734;2023-03-19T04:50:33;9.50;99.90
57843;DHT22;43673;51.058;3.734;2023-03-19T04:52:59;9.50;99.90
57843;DHT22;43673;51.058;3.734;2023-03-19T04:55:25;9.50;99.90
57843;DHT22;43673;51.058;3.734;2023-03-19T04:57:50;9.50;99.90
57843;DHT22;43673;51.058;3.734;2023-03-19T05:00:16;9.50;99.90
57843;DHT22;43673;51.058;3.734;2023-03-19T05:02:42;9.50;99.90
57843;DHT22;43673;51.058;3.734;2023-03-19T05:05:09;9.60;99.90
57843;DHT22;43673;51.058;3.734;2023-03-19T05:07:41;9.60;99.90
57843;DHT22;43673;51.058;3.734;2023-03-19T05:10:08;9.60;99.90
57843;DHT22;43673;51.058;3.734;2023-03-19T05:12:34;9.70;99.90
57843;DHT22;43673;51.058;3.734;2023-03-19T05:15:00;9.80;99.90
57843;DHT22;43673;51.058;3.734;2023-03-19T05:17:26;9.80;99.90
57843;DHT22;43673;51.058;3.734;2023-03-19T05:19:52;9.90;99.90
57843;DHT22;43673;51.058;3.734;2023-03-19T05:22:18;9.90;99.90
57843;DHT22;43673;51.058;3.734;2023-03-19T05:24:45;10.00;99.90
57843;DHT22;43673;51.058;3.734;2023-03-19T05:27:11;10.00;99.90
57843;DHT22;43673;51.058;3.734;2023-03-19T05:29:37;10.10;99.90
57843;DHT22;43673;51.058;3.734;2023-03-19T05:32:03;10.10;99.90
57843;DHT22;43673;51.058;3.734;2023-03-19T05:34:29;10.10;99.90
57843;DHT22;43673;51.058;3.734;2023-03-19T05:36:55;10.20;99.90
57843;DHT22;43673;51.058;3.734;2023-03-19T05:39:20;10.20;99.90
57843;DHT22;43673;51.058;3.734;2023-03-19T05:41:46;10.20;99.90
57843;DHT22;43673;51.058;3.734;2023-03-19T05:44:12;10.20;99.90
57843;DHT22;43673;51.058;3.734;2023-03-19T05:46:37;10.20;99.90
57843;DHT22;43673;51.058;3.734;2023-03-19T05:49:03;10.20;99.90
57843;DHT22;43673;51.058;3.734;2023-03-19T05:51:30;10.20;99.90
57843;DHT22;43673;51.058;3.734;2023-03-19T05:53:56;10.20;99.90
57843;DHT22;43673;51.058;3.734;2023-03-19T05:56:22;10.20;99.90
57843;DHT22;43673;51.058;3.734;2023-03-19T05:58:47;10.30;99.90
57843;DHT22;43673;51.058;3.734;2023-03-19T06:01:13;10.20;99.90
57843;DHT22;43673;51.058;3.734;2023-03-19T06:03:39;10.30;99.90
57843;DHT22;43673;51.058;3.734;2023-03-19T06:06:05;10.40;99.90
57843;DHT22;43673;51.058;3.734;2023-03-19T06:08:31;10.40;99.90
57843;DHT22;43673;51.058;3.734;2023-03-19T06:10:57;10.40;99.90
57843;DHT22;43673;51.058;3.734;2023-03-19T06:13:23;10.40;99.90
57843;DHT22;43673;51.058;3.734;2023-03-19T06:15:49;10.40;99.90
57843;DHT22;43673;51.058;3.734;2023-03-19T06:18:15;10.40;99.90
57843;DHT22;43673;51.058;3.734;2023-03-19T06:20:41;10.50;99.90
57843;DHT22;43673;51.058;3.734;2023-03-19T06:23:07;10.60;99.90
57843;DHT22;43673;51.058;3.734;2023-03-19T06:25:33;10.60;99.90
57843;DHT22;43673;51.058;3.734;2023-03-19T06:27:58;10.60;99.90
57843;DHT22;43673;51.058;3.734;2023-03-19T06:30:24;10.70;99.90
57843;DHT22;43673;51.058;3.734;2023-03-19T06:32:50;10.80;99.90
57843;DHT22;43673;51.058;3.734;2023-03-19T06:35:16;10.90;99.90
57843;DHT22;43673;51.058;3.734;2023-03-19T06:37:42;11.00;99.90
57843;DHT22;43673;51.058;3.734;2023-03-19T06:40:08;11.00;99.90
57843;DHT22;43673;51.058;3.734;2023-03-19T06:42:34;11.00;99.90
57843;DHT22;43673;51.058;3.734;2023-03-19T06:45:00;11.00;99.90
57843;DHT22;43673;51.058;3.734;2023-03-19T06:47:25;11.00;99.90
57843;DHT22;43673;51.058;3.734;2023-03-19T06:49:51;11.10;99.90
57843;DHT22;43673;51.058;3.734;2023-03-19T06:52:17;11.10;99.90
57843;DHT22;43673;51.058;3.734;2023-03-19T06:54:43;11.10;99.90
57843;DHT22;43673;51.058;3.734;2023-03-19T06:57:08;11.10;99.90
57843;DHT22;43673;51.058;3.734;2023-03-19T06:59:34;11.10;99.90
57843;DHT22;43673;51.058;3.734;2023-03-19T07:02:00;11.20;99.90
57843;DHT22;43673;51.058;3.734;2023-03-19T07:04:26;11.30;99.90
57843;DHT22;43673;51.058;3.734;2023-03-19T07:06:52;11.40;99.90
57843;DHT22;43673;51.058;3.734;2023-03-19T07:09:17;11.40;99.90
57843;DHT22;43673;51.058;3.734;2023-03-19T07:11:43;11.50;99.90
57843;DHT22;43673;51.058;3.734;2023-03-19T07:14:09;11.60;99.90
57843;DHT22;43673;51.058;3.734;2023-03-19T07:16:35;11.60;99.90
57843;DHT22;43673;51.058;3.734;2023-03-19T07:19:01;11.70;99.90
57843;DHT22;43673;51.058;3.734;2023-03-19T07:21:28;11.80;99.90
57843;DHT22;43673;51.058;3.734;2023-03-19T07:23:54;11.80;99.90
57843;DHT22;43673;51.058;3.734;2023-03-19T07:26:20;12.00;99.90
57843;DHT22;43673;51.058;3.734;2023-03-19T07:28:45;12.20;99.90
57843;DHT22;43673;51.058;3.734;2023-03-19T07:31:11;12.40;99.90
57843;DHT22;43673;51.058;3.734;2023-03-19T07:33:37;12.70;99.90
57843;DHT22;43673;51.058;3.734;2023-03-19T07:36:03;12.70;99.90
57843;DHT22;43673;51.058;3.734;2023-03-19T07:38:29;12.80;99.90
57843;DHT22;43673;51.058;3.734;2023-03-19T07:40:54;12.80;99.90
57843;DHT22;43673;51.058;3.734;2023-03-19T07:43:20;12.70;99.90
57843;DHT22;43673;51.058;3.734;2023-03-19T07:45:46;12.70;99.90
57843;DHT22;43673;51.058;3.734;2023-03-19T07:48:11;12.70;99.90
57843;DHT22;43673;51.058;3.734;2023-03-19T07:50:38;12.60;99.90
57843;DHT22;43673;51.058;3.734;2023-03-19T07:53:03;12.60;99.90
57843;DHT22;43673;51.058;3.734;2023-03-19T07:55:29;12.50;99.90
57843;DHT22;43673;51.058;3.734;2023-03-19T07:57:55;12.50;99.90
57843;DHT22;43673;51.058;3.734;2023-03-19T08:00:21;12.40;99.90
57843;DHT22;43673;51.058;3.734;2023-03-19T08:02:46;12.40;99.90
57843;DHT22;43673;51.058;3.734;2023-03-19T08:05:12;12.40;99.90
57843;DHT22;43673;51.058;3.734;2023-03-19T08:07:38;12.50;99.90
57843;DHT22;43673;51.058;3.734;2023-03-19T08:10:04;12.60;99.90
57843;DHT22;43673;51.058;3.734;2023-03-19T08:12:30;12.70;99.90
57843;DHT22;43673;51.058;3.734;2023-03-19T08:14:57;12.80;99.90
57843;DHT22;43673;51.058;3.734;2023-03-19T08:17:22;13.00;99.90
57843;DHT22;43673;51.058;3.734;2023-03-19T08:19:48;13.10;99.90
57843;DHT22;43673;51.058;3.734;2023-03-19T08:22:14;13.30;99.90
57843;DHT22;43673;51.058;3.734;2023-03-19T08:24:39;13.40;99.90
57843;DHT22;43673;51.058;3.734;2023-03-19T08:27:05;13.40;99.90
57843;DHT22;43673;51.058;3.734;2023-03-19T08:29:32;13.40;99.90
57843;DHT22;43673;51.058;3.734;2023-03-19T08:31:57;13.40;99.90
57843;DHT22;43673;51.058;3.734;2023-03-19T08:34:25;13.40;99.90
57843;DHT22;43673;51.058;3.734;2023-03-19T08:36:51;13.50;99.90
57843;DHT22;43673;51.058;3.734;2023-03-19T08:39:17;13.60;99.90
57843;DHT22;43673;51.058;3.734;2023-03-19T08:41:42;13.50;99.90
57843;DHT22;43673;51.058;3.734;2023-03-19T08:44:08;13.50;99.90
57843;DHT22;43673;51.058;3.734;2023-03-19T08:46:34;13.50;99.90
57843;DHT22;43673;51.058;3.734;2023-03-19T08:49:00;13.50;99.90
57843;DHT22;43673;51.058;3.734;2023-03-19T08:51:25;13.60;99.90
57843;DHT22;43673;51.058;3.734;2023-03-19T08:53:52;13.60;99.90
57843;DHT22;43673;51.058;3.734;2023-03-19T08:56:18;13.80;99.90
57843;DHT22;43673;51.058;3.734;2023-03-19T08:58:44;13.90;99.90
57843;DHT22;43673;51.058;3.734;2023-03-19T09:01:11;13.90;99.90
57843;DHT22;43673;51.058;3.734;2023-03-19T09:03:39;13.90;99.90
57843;DHT22;43673;51.058;3.734;2023-03-19T09:06:07;13.90;99.90
57843;DHT22;43673;51.058;3.734;2023-03-19T09:08:34;13.90;99.90
57843;DHT22;43673;51.058;3.734;2023-03-19T09:11:00;13.90;99.90
57843;DHT22;43673;51.058;3.734;2023-03-19T09:13:26;13.70;99.90
57843;DHT22;43673;51.058;3.734;2023-03-19T09:15:52;13.50;99.90
57843;DHT22;43673;51.058;3.734;2023-03-19T09:18:18;13.60;99.90
57843;DHT22;43673;51.058;3.734;2023-03-19T09:20:51;13.60;99.90
57843;DHT22;43673;51.058;3.734;2023-03-19T09:23:17;13.50;99.90
57843;DHT22;43673;51.058;3.734;2023-03-19T09:25:43;13.30;99.90
57843;DHT22;43673;51.058;3.734;2023-03-19T09:28:09;13.20;99.90
57843;DHT22;43673;51.058;3.734;2023-03-19T09:30:35;13.10;99.90
57843;DHT22;43673;51.058;3.734;2023-03-19T09:33:00;12.90;99.90
57843;DHT22;43673;51.058;3.734;2023-03-19T09:35:26;12.80;99.90
57843;DHT22;43673;51.058;3.734;2023-03-19T09:37:56;12.70;99.90
57843;DHT22;43673;51.058;3.734;2023-03-19T09:40:41;12.70;99.90
57843;DHT22;43673;51.058;3.734;2023-03-19T09:43:27;12.70;99.90
57843;DHT22;43673;51.058;3.734;2023-03-19T09:45:56;12.70;99.90
57843;DHT22;43673;51.058;3.734;2023-03-19T09:48:47;12.90;99.90
57843;DHT22;43673;51.058;3.734;2023-03-19T09:51:24;12.90;99.90
57843;DHT22;43673;51.058;3.734;2023-03-19T09:53:57;12.80;99.90
57843;DHT22;43673;51.058;3.734;2023-03-19T09:56:25;12.60;99.90
57843;DHT22;43673;51.058;3.734;2023-03-19T09:58:52;12.60;99.90
57843;DHT22;43673;51.058;3.734;2023-03-19T10:01:35;12.70;99.90
57843;DHT22;43673;51.058;3.734;2023-03-19T10:04:19;12.70;99.90
57843;DHT22;43673;51.058;3.734;2023-03-19T10:06:59;12.70;99.90
57843;DHT22;43673;51.058;3.734;2023-03-19T10:12:31;12.80;99.90
57843;DHT22;43673;51.058;3.734;2023-03-19T10:15:40;12.90;99.90
57843;DHT22;43673;51.058;3.734;2023-03-19T10:18:25;13.20;99.90
57843;DHT22;43673;51.058;3.734;2023-03-19T10:21:10;13.60;99.90
57843;DHT22;43673;51.058;3.734;2023-03-19T10:23:52;14.00;99.90
57843;DHT22;43673;51.058;3.734;2023-03-19T10:26:21;14.30;99.90
57843;DHT22;43673;51.058;3.734;2023-03-19T10:29:13;14.70;99.90
57843;DHT22;43673;51.058;3.734;2023-03-19T10:34:20;15.40;99.90
57843;DHT22;43673;51.058;3.734;2023-03-19T10:36:47;15.80;99.90
57843;DHT22;43673;51.058;3.734;2023-03-19T10:39:15;16.40;99.90
57843;DHT22;43673;51.058;3.734;2023-03-19T10:41:59;16.90;99.90
57843;DHT22;43673;51.058;3.734;2023-03-19T10:44:34;18.10;99.90
57843;DHT22;43673;51.058;3.734;2023-03-19T10:47:10;19.60;99.90
57843;DHT22;43673;51.058;3.734;2023-03-19T10:49:36;20.30;99.90
57843;DHT22;43673;51.058;3.734;2023-03-19T10:52:03;20.10;99.90
57843;DHT22;43673;51.058;3.734;2023-03-19T10:54:29;19.40;99.90
57843;DHT22;43673;51.058;3.734;2023-03-19T10:56:59;18.90;99.90
57843;DHT22;43673;51.058;3.734;2023-03-19T11:02:00;18.50;99.90
57843;DHT22;43673;51.058;3.734;2023-03-19T11:04:27;18.50;99.90
57843;DHT22;43673;51.058;3.734;2023-03-19T11:06:55;18.40;99.90
57843;DHT22;43673;51.058;3.734;2023-03-19T11:09:40;18.20;99.90
57843;DHT22;43673;51.058;3.734;2023-03-19T11:12:21;17.90;99.90
57843;DHT22;43673;51.058;3.734;2023-03-19T11:14:54;17.70;99.90
57843;DHT22;43673;51.058;3.734;2023-03-19T11:17:36;17.40;99.90
57843;DHT22;43673;51.058;3.734;2023-03-19T11:20:22;17.20;99.90
57843;DHT22;43673;51.058;3.734;2023-03-19T11:22:51;17.20;99.90
57843;DHT22;43673;51.058;3.734;2023-03-19T11:25:25;17.10;99.90
57843;DHT22;43673;51.058;3.734;2023-03-19T11:28:16;16.90;99.90
57843;DHT22;43673;51.058;3.734;2023-03-19T11:44:48;15.80;99.90
57843;DHT22;43673;51.058;3.734;2023-03-19T11:55:16;15.10;99.90
57843;DHT22;43673;51.058;3.734;2023-03-19T12:00:49;15.10;99.90
57843;DHT22;43673;51.058;3.734;2023-03-19T12:06:08;14.90;99.90
57843;DHT22;43673;51.058;3.734;2023-03-19T12:09:37;14.90;99.90
57843;DHT22;43673;51.058;3.734;2023-03-19T12:17:37;15.30;99.90
57843;DHT22;43673;51.058;3.734;2023-03-19T12:22:55;15.50;99.90
57843;DHT22;43673;51.058;3.734;2023-03-19T12:28:27;16.00;99.90
57843;DHT22;43673;51.058;3.734;2023-03-19T12:36:30;16.20;99.90
57843;DHT22;43673;51.058;3.734;2023-03-19T12:39:04;16.00;99.90
57843;DHT22;43673;51.058;3.734;2023-03-19T12:41:32;15.80;99.90
57843;DHT22;43673;51.058;3.734;2023-03-19T12:44:18;15.70;99.90
57843;DHT22;43673;51.058;3.734;2023-03-19T12:46:56;15.70;99.90
57843;DHT22;43673;51.058;3.734;2023-03-19T12:49:24;15.80;99.90
57843;DHT22;43673;51.058;3.734;2023-03-19T12:51:58;15.80;99.90
57843;DHT22;43673;51.058;3.734;2023-03-19T12:54:30;15.80;99.90
57843;DHT22;43673;51.058;3.734;2023-03-19T12:57:09;15.90;99.90
57843;DHT22;43673;51.058;3.734;2023-03-19T12:59:52;15.90;99.90
57843;DHT22;43673;51.058;3.734;2023-03-19T13:04:53;15.40;99.90
57843;DHT22;43673;51.058;3.734;2023-03-19T13:10:16;15.10;99.90
57843;DHT22;43673;51.058;3.734;2023-03-19T13:12:43;15.10;99.90
57843;DHT22;43673;51.058;3.734;2023-03-19T13:15:21;14.90;99.90
57843;DHT22;43673;51.058;3.734;2023-03-19T13:21:20;14.50;99.90
57843;DHT22;43673;51.058;3.734;2023-03-19T13:26:38;14.20;99.90
57843;DHT22;43673;51.058;3.734;2023-03-19T13:29:29;14.10;99.90
57843;DHT22;43673;51.058;3.734;2023-03-19T13:32:00;13.90;99.90
57843;DHT22;43673;51.058;3.734;2023-03-19T13:34:28;13.70;99.90
57843;DHT22;43673;51.058;3.734;2023-03-19T13:37:14;13.60;99.90
57843;DHT22;43673;51.058;3.734;2023-03-19T13:39:41;13.40;99.90
57843;DHT22;43673;51.058;3.734;2023-03-19T13:45:00;13.10;99.90
57843;DHT22;43673;51.058;3.734;2023-03-19T13:55:18;12.70;99.90
57843;DHT22;43673;51.058;3.734;2023-03-19T13:58:17;12.50;99.90
57843;DHT22;43673;51.058;3.734;2023-03-19T14:00:58;12.50;99.90
57843;DHT22;43673;51.058;3.734;2023-03-19T14:03:27;12.50;99.90
57843;DHT22;43673;51.058;3.734;2023-03-19T14:05:55;12.40;99.90
57843;DHT22;43673;51.058;3.734;2023-03-19T14:08:25;12.40;99.90
57843;DHT22;43673;51.058;3.734;2023-03-19T14:10:53;12.50;99.90
57843;DHT22;43673;51.058;3.734;2023-03-19T14:13:36;12.50;99.90
57843;DHT22;43673;51.058;3.734;2023-03-19T14:16:23;12.50;99.90
57843;DHT22;43673;51.058;3.734;2023-03-19T14:18:55;12.30;99.90
57843;DHT22;43673;51.058;3.734;2023-03-19T14:21:42;12.10;99.90
57843;DHT22;43673;51.058;3.734;2023-03-19T14:24:34;12.10;99.90
57843;DHT22;43673;51.058;3.734;2023-03-19T14:27:14;11.90;99.90
57843;DHT22;43673;51.058;3.734;2023-03-19T14:29:42;12.00;99.90
57843;DHT22;43673;51.058;3.734;2023-03-19T14:32:15;12.00;99.90
57843;DHT22;43673;51.058;3.734;2023-03-19T14:34:45;12.10;99.90
57843;DHT22;43673;51.058;3.734;2023-03-19T14:37:24;12.10;99.90
57843;DHT22;43673;51.058;3.734;2023-03-19T14:40:12;12.10;99.90
57843;DHT22;43673;51.058;3.734;2023-03-19T14:48:22;12.20;99.90
57843;DHT22;43673;51.058;3.734;2023-03-19T14:53:50;12.30;99.90
57843;DHT22;43673;51.058;3.734;2023-03-19T14:56:25;12.30;99.90
57843;DHT22;43673;51.058;3.734;2023-03-19T14:58:56;12.30;99.90
57843;DHT22;43673;51.058;3.734;2023-03-19T15:01:26;12.50;99.90
57843;DHT22;43673;51.058;3.734;2023-03-19T15:04:03;12.30;99.90
57843;DHT22;43673;51.058;3.734;2023-03-19T15:06:37;12.20;99.90
57843;DHT22;43673;51.058;3.734;2023-03-19T15:09:11;12.10;99.90
57843;DHT22;43673;51.058;3.734;2023-03-19T15:14:31;12.20;99.90
57843;DHT22;43673;51.058;3.734;2023-03-19T15:17:00;12.10;99.90
57843;DHT22;43673;51.058;3.734;2023-03-19T15:19:30;12.10;99.90
57843;DHT22;43673;51.058;3.734;2023-03-19T15:22:26;12.20;99.90
57843;DHT22;43673;51.058;3.734;2023-03-19T15:25:07;12.40;99.90
57843;DHT22;43673;51.058;3.734;2023-03-19T15:27:34;12.60;99.90
57843;DHT22;43673;51.058;3.734;2023-03-19T15:30:00;12.60;99.90
57843;DHT22;43673;51.058;3.734;2023-03-19T15:32:37;12.70;99.90
57843;DHT22;43673;51.058;3.734;2023-03-19T15:35:04;12.60;99.90
57843;DHT22;43673;51.058;3.734;2023-03-19T15:37:38;12.60;99.90
57843;DHT22;43673;51.058;3.734;2023-03-19T15:40:08;12.70;99.90
57843;DHT22;43673;51.058;3.734;2023-03-19T15:42:37;12.70;99.90
57843;DHT22;43673;51.058;3.734;2023-03-19T15:45:08;12.70;99.90
57843;DHT22;43673;51.058;3.734;2023-03-19T15:47:38;12.80;99.90
57843;DHT22;43673;51.058;3.734;2023-03-19T15:52:37;12.50;99.90
57843;DHT22;43673;51.058;3.734;2023-03-19T15:55:04;12.50;99.90
57843;DHT22;43673;51.058;3.734;2023-03-19T15:57:31;12.40;99.90
57843;DHT22;43673;51.058;3.734;2023-03-19T15:59:59;12.40;99.90
57843;DHT22;43673;51.058;3.734;2023-03-19T16:02:28;12.40;99.90
57843;DHT22;43673;51.058;3.734;2023-03-19T16:04:56;12.50;99.90
57843;DHT22;43673;51.058;3.734;2023-03-19T16:09:55;12.40;99.90
57843;DHT22;43673;51.058;3.734;2023-03-19T16:12:38;12.30;99.90
57843;DHT22;43673;51.058;3.734;2023-03-19T16:15:27;12.40;99.90
57843;DHT22;43673;51.058;3.734;2023-03-19T16:17:54;12.30;99.90
57843;DHT22;43673;51.058;3.734;2023-03-19T16:20:20;12.20;99.90
57843;DHT22;43673;51.058;3.734;2023-03-19T16:22:53;12.20;99.90
57843;DHT22;43673;51.058;3.734;2023-03-19T16:25:28;12.20;99.90
57843;DHT22;43673;51.058;3.734;2023-03-19T16:27:58;12.20;99.90
57843;DHT22;43673;51.058;3.734;2023-03-19T16:30:25;12.10;99.90
57843;DHT22;43673;51.058;3.734;2023-03-19T16:33:05;12.00;99.90
57843;DHT22;43673;51.058;3.734;2023-03-19T16:35:32;12.00;99.90
57843;DHT22;43673;51.058;3.734;2023-03-19T16:40:42;12.00;99.90
57843;DHT22;43673;51.058;3.734;2023-03-19T16:43:20;12.00;99.90
57843;DHT22;43673;51.058;3.734;2023-03-19T16:45:51;11.90;99.90
57843;DHT22;43673;51.058;3.734;2023-03-19T16:48:27;11.90;99.90
57843;DHT22;43673;51.058;3.734;2023-03-19T16:50:53;11.80;99.90
57843;DHT22;43673;51.058;3.734;2023-03-19T16:53:24;11.80;99.90
57843;DHT22;43673;51.058;3.734;2023-03-19T16:55:52;11.80;99.90
57843;DHT22;43673;51.058;3.734;2023-03-19T16:58:37;11.70;99.90
57843;DHT22;43673;51.058;3.734;2023-03-19T17:01:17;11.70;99.90
57843;DHT22;43673;51.058;3.734;2023-03-19T17:03:44;11.80;99.90
57843;DHT22;43673;51.058;3.734;2023-03-19T17:06:11;11.80;99.90
57843;DHT22;43673;51.058;3.734;2023-03-19T17:08:38;11.80;99.90
57843;DHT22;43673;51.058;3.734;2023-03-19T17:11:04;11.70;99.90
57843;DHT22;43673;51.058;3.734;2023-03-19T17:13:31;11.60;99.90
57843;DHT22;43673;51.058;3.734;2023-03-19T17:16:00;11.60;99.90
57843;DHT22;43673;51.058;3.734;2023-03-19T17:18:39;11.60;99.90
57843;DHT22;43673;51.058;3.734;2023-03-19T17:21:25;11.60;99.90
57843;DHT22;43673;51.058;3.734;2023-03-19T17:23:52;11.60;99.90